Crow Agency, MT

9:33 PM MDT on October 24, 2014 (GMT -0600)
RAWS LITTLE BIGHORN MT US | Change Station
CLOSE
Current Station
Personal Weather Station
Location: Crow Agency, MT
Elevation: 3196 ft
Nearby Weather Stations

Elev 3196 ft 45.57 °N, 107.44 °W | Updated 34 minutes ago

Partly Cloudy
Partly Cloudy
54 °F
Feels Like 54 °F
N
11
Wind Variable Wind from ESE
Gusts 15.0 mph

Today
High -- | Low -- °F
--% Chance of Precip.
Yesterday
High -- | Low -- °F
Precip. -- in
7:38 AM 6:08 PM
New Moon, 2% visible
Pressure 30.09 in
Visibility 10.0 miles
Clouds Scattered Clouds 14000 ft
Dew Point 31 °F
Humidity 42%
Rainfall 0.00 in
Snow Depth Not available.
UV 0 out of 12
Pollen 1.70 out of 12
Air Quality Not available.
Flu Activity No Activity
METAR KBIL 250253Z 02004KT 10SM SCT140 11/02 A3010 RMK AO2 SLP189 T01060022 52007

More Conditions Fewer Conditions

Pressure 30.09 in
Visibility 10.0 miles
Clouds Scattered Clouds 14000 ft
Dew Point 31 °F
Humidity 42%
Rainfall 0.00 in
Snow Depth Not available.
UV 0 out of 12
Pollen 1.70 out of 12
Air Quality Not available.
Flu Activity No Activity
METAR KBIL 250253Z 02004KT 10SM SCT140 11/02 A3010 RMK AO2 SLP189 T01060022 52007

More Conditions Fewer Conditions

10-Day Weather Forecast

Almanac

Astronomy

Oct. 24, 2014 Rise Set
Actual Time 7:38 AM MDT 6:08 PM MDT
Civil Twilight 7:08 AM MDT 6:39 PM MDT
Nautical Twilight 6:33 AM MDT 7:13 PM MDT
Astronomical Twilight 5:59 AM MDT 7:48 PM MDT
Moon 8:22 AM MDT (10/24) 6:48 PM MDT (10/24)
Length of Visible Light 11h 31m
Length of Day
10h 30m
Tomorrow will be 3m 0s shorter.
New Moon, 2% of the Moon is Illuminated
Today
New Moon
Oct 30
First Quarter
Nov 6
Full
Nov 14
Last Quarter
Nov 22
New

Today's Extremes

State Highs State Lows

Community

WunderPhotos

Upload Photos

1,764,771 photos uploaded!

Nearby

Snow Depth

Station Depth Elevation
Burnt Mountain 0 in 5880 ft
Crystal Lake 1 in 6050 ft
Fisher Creek 1 in 9100 ft
Northeast Entrance 0 in 7350 ft
Monument Peak 0 in 8850 ft

Earthquake Activity

City Distance Mag. Time & Date
No recent earthquake activity has been reported nearby.
Minimum magnitude displayed is 2.5.

Coastal Water Temperatures

Place Temperature
No Stations Reporting

Nearby Weather Stations